createdAt,value
2018-12-09T00:00:07.239Z,96842.58
2018-12-09T00:03:10.523Z,96845.21
2018-12-09T00:06:13.801Z,96843.61
2018-12-09T00:09:17.157Z,96854.11
2018-12-09T00:12:20.377Z,96849.39
2018-12-09T00:15:23.690Z,96835.25
2018-12-09T00:18:26.898Z,96836.70
2018-12-09T00:21:30.209Z,96837.45
2018-12-09T00:24:33.469Z,96862.10
2018-12-09T00:27:36.726Z,96856.81
2018-12-09T00:30:39.951Z,96855.08
2018-12-09T00:33:43.291Z,96875.38
2018-12-09T00:36:46.560Z,96890.48
2018-12-09T00:39:49.788Z,96854.58
2018-12-09T00:42:53.051Z,96844.63
2018-12-09T00:45:56.284Z,96844.70
2018-12-09T00:48:59.635Z,96822.09
2018-12-09T00:52:02.840Z,96812.17
2018-12-09T00:55:06.577Z,96787.38
2018-12-09T00:58:09.813Z,96799.20
2018-12-09T01:01:13.069Z,96807.49
2018-12-09T01:04:16.328Z,96810.16
2018-12-09T01:07:19.581Z,96818.02
2018-12-09T01:10:22.944Z,96817.83
2018-12-09T01:13:26.256Z,96818.14
2018-12-09T01:16:29.460Z,96794.33
2018-12-09T01:19:32.925Z,96807.33
2018-12-09T01:22:36.248Z,96802.38
2018-12-09T01:25:39.465Z,96806.80
2018-12-09T01:28:42.838Z,96807.25
2018-12-09T01:31:46.227Z,96797.16
2018-12-09T01:34:49.771Z,96789.34
2018-12-09T01:37:53.088Z,96781.07
2018-12-09T01:40:56.400Z,96794.30
2018-12-09T01:43:59.714Z,96796.98
2018-12-09T01:47:03.100Z,96781.02
2018-12-09T01:50:06.893Z,96800.47
2018-12-09T01:53:28.120Z,96779.08
2018-12-09T01:56:31.488Z,96768.72
2018-12-09T01:59:34.828Z,96768.41
2018-12-09T02:02:38.257Z,96790.59
2018-12-09T02:05:41.602Z,96781.95
2018-12-09T02:08:44.924Z,96775.97
2018-12-09T02:11:48.181Z,96777.81
2018-12-09T02:14:51.412Z,96791.64
2018-12-09T02:17:54.747Z,96799.50
2018-12-09T02:20:57.956Z,96801.21
2018-12-09T02:24:01.304Z,96793.55
2018-12-09T02:27:04.731Z,96774.03
2018-12-09T02:30:08.101Z,96783.34
2018-12-09T02:33:11.413Z,96762.58
2018-12-09T02:36:14.839Z,96760.16
2018-12-09T02:39:18.175Z,96768.58
2018-12-09T02:42:21.532Z,96761.47
2018-12-09T02:45:25.366Z,96755.86
2018-12-09T02:48:28.741Z,96746.58
2018-12-09T02:51:32.117Z,96728.70
2018-12-09T02:54:35.457Z,96734.88
2018-12-09T02:57:38.736Z,96759.44
2018-12-09T03:00:42.074Z,96790.84
2018-12-09T03:03:45.419Z,96857.31
2018-12-09T03:06:48.835Z,96784.71
2018-12-09T03:09:52.148Z,96756.03
2018-12-09T03:12:55.481Z,96757.56
2018-12-09T03:15:58.797Z,96778.71
2018-12-09T03:19:02.109Z,96778.71
2018-12-09T03:22:05.386Z,96776.84
2018-12-09T03:25:08.822Z,96767.56
2018-12-09T03:28:12.167Z,96747.36
2018-12-09T03:31:15.530Z,96759.12
2018-12-09T03:34:18.849Z,96778.87
2018-12-09T03:37:22.460Z,96773.59
2018-12-09T03:40:25.832Z,96772.27
2018-12-09T03:43:29.161Z,96767.18
2018-12-09T03:46:32.499Z,96770.05
2018-12-09T03:49:35.813Z,96768.02
2018-12-09T03:52:39.116Z,96764.31
2018-12-09T03:55:42.465Z,96771.98
2018-12-09T03:58:45.817Z,96780.66
2018-12-09T04:01:49.131Z,96790.64
2018-12-09T04:04:52.432Z,96792.92
2018-12-09T04:07:55.694Z,96781.38
2018-12-09T04:10:59.016Z,96812.64
2018-12-09T04:14:02.356Z,96789.64
2018-12-09T04:17:05.694Z,96789.02
2018-12-09T04:20:09.069Z,96808.44
2018-12-09T04:23:12.795Z,96794.22
2018-12-09T04:26:16.109Z,96776.42
2018-12-09T04:29:19.425Z,96773.52
2018-12-09T04:32:22.764Z,96798.38
2018-12-09T04:35:26.076Z,96816.45
2018-12-09T04:38:29.397Z,96812.94
2018-12-09T04:41:32.712Z,96825.20
2018-12-09T04:44:36.028Z,96829.18
2018-12-09T04:47:39.275Z,96819.02
2018-12-09T04:50:42.584Z,96830.41
2018-12-09T04:53:45.891Z,96833.23
2018-12-09T04:56:49.233Z,96823.56
2018-12-09T04:59:57.450Z,96823.56
2018-12-09T05:03:00.674Z,96847.64
2018-12-09T05:06:04.044Z,96842.70
2018-12-09T05:09:07.330Z,96834.26
2018-12-09T05:12:10.642Z,96828.06
2018-12-09T05:15:14.017Z,96843.11
2018-12-09T05:18:17.367Z,96840.73
2018-12-09T05:21:20.987Z,96855.61
2018-12-09T05:24:24.296Z,96826.94
2018-12-09T05:27:27.601Z,96840.73
2018-12-09T05:30:30.862Z,96824.45
2018-12-09T05:33:34.188Z,96817.71
2018-12-09T05:36:37.528Z,96836.38
2018-12-09T05:39:40.845Z,96819.65
2018-12-09T05:42:44.181Z,96845.88
2018-12-09T05:45:47.517Z,96837.83
2018-12-09T05:48:50.853Z,96834.31
2018-12-09T05:51:54.213Z,96845.17
2018-12-09T05:54:57.851Z,96856.20
2018-12-09T05:58:01.153Z,96869.34
2018-12-09T06:01:04.489Z,96862.24
2018-12-09T06:04:07.803Z,96869.50
2018-12-09T06:07:11.136Z,96866.39
2018-12-09T06:10:14.428Z,96870.84
2018-12-09T06:13:17.761Z,96886.45
2018-12-09T06:16:21.087Z,96885.55
2018-12-09T06:19:24.393Z,96875.98
2018-12-09T06:22:27.726Z,96857.77
2018-12-09T06:25:31.068Z,96875.84
2018-12-09T06:28:34.777Z,96883.33
2018-12-09T06:31:38.116Z,96886.88
2018-12-09T06:34:41.442Z,96885.34
2018-12-09T06:37:44.818Z,96888.02
2018-12-09T06:40:48.050Z,96883.87
2018-12-09T06:43:51.386Z,96891.99
2018-12-09T06:46:54.918Z,96890.86
2018-12-09T06:49:58.222Z,96894.06
2018-12-09T06:53:01.540Z,96935.56
2018-12-09T06:56:04.911Z,96937.67
2018-12-09T06:59:08.323Z,96932.83
2018-12-09T07:02:11.689Z,96951.02
2018-12-09T07:05:15.036Z,96954.22
2018-12-09T07:08:18.420Z,96940.52
2018-12-09T07:11:21.922Z,96955.89
2018-12-09T07:14:25.125Z,96946.80
2018-12-09T07:17:28.441Z,96946.09
2018-12-09T07:20:31.814Z,96962.16
2018-12-09T07:23:35.212Z,96983.14
2018-12-09T07:26:38.522Z,96978.53
2018-12-09T07:29:42.011Z,96985.69
2018-12-09T07:32:45.410Z,97007.52
2018-12-09T07:35:48.724Z,97031.45
2018-12-09T07:38:51.944Z,97032.38
2018-12-09T07:41:55.404Z,97028.58
2018-12-09T07:44:58.912Z,97051.23
2018-12-09T07:48:02.226Z,97048.05
2018-12-09T07:51:05.575Z,97040.30
2018-12-09T07:54:08.900Z,97065.72
2018-12-09T07:57:12.107Z,97071.28
2018-12-09T08:00:15.413Z,97064.78
2018-12-09T08:03:18.699Z,97077.11
2018-12-09T08:06:22.089Z,97079.59
2018-12-09T08:09:25.385Z,97090.91
2018-12-09T08:12:28.620Z,97092.85
2018-12-09T08:15:31.836Z,97101.97
2018-12-09T08:18:35.088Z,97122.77
2018-12-09T08:21:38.340Z,97117.69
2018-12-09T08:24:41.593Z,97136.73
2018-12-09T08:27:44.963Z,97125.55
2018-12-09T08:30:48.186Z,97134.56
2018-12-09T08:33:51.545Z,97125.61
2018-12-09T08:36:54.780Z,97135.41
2018-12-09T08:39:57.997Z,97137.83
2018-12-09T08:43:01.230Z,97137.20
2018-12-09T08:46:04.515Z,97138.55
2018-12-09T08:49:07.781Z,97139.88
2018-12-09T08:52:11.000Z,97141.56
2018-12-09T08:55:14.230Z,97125.58
2018-12-09T08:58:17.480Z,97118.84
2018-12-09T09:01:20.712Z,97121.85
2018-12-09T09:04:23.973Z,97107.38
2018-12-09T09:07:27.213Z,97110.02
2018-12-09T09:10:30.434Z,97103.16
2018-12-09T09:13:33.665Z,97122.47
2018-12-09T09:16:36.921Z,97117.84
2018-12-09T09:19:40.158Z,97116.17
2018-12-09T09:22:43.384Z,97112.43
2018-12-09T09:25:46.601Z,97124.58
2018-12-09T09:28:49.816Z,97123.52
2018-12-09T09:31:53.075Z,97116.77
2018-12-09T09:34:56.284Z,97128.89
2018-12-09T09:37:59.545Z,97130.20
2018-12-09T09:41:02.812Z,97133.91
2018-12-09T09:44:06.036Z,97132.16
2018-12-09T09:47:09.289Z,97136.52
2018-12-09T09:50:12.538Z,97132.83
2018-12-09T09:53:15.765Z,97123.95
2018-12-09T09:56:19.144Z,97116.86
2018-12-09T09:59:22.353Z,97114.34
2018-12-09T10:02:25.672Z,97116.91
2018-12-09T10:05:28.892Z,97098.09
2018-12-09T10:08:32.128Z,97116.38
2018-12-09T10:11:35.713Z,97113.73
2018-12-09T10:14:38.928Z,97116.09
2018-12-09T10:17:42.188Z,97119.43
2018-12-09T10:20:45.445Z,97113.81
2018-12-09T10:23:48.675Z,97131.27
2018-12-09T10:26:51.936Z,97117.91
2018-12-09T10:29:55.166Z,97139.00
2018-12-09T10:32:58.425Z,97142.53
2018-12-09T10:36:01.668Z,97148.08
2018-12-09T10:39:07.193Z,97140.77
2018-12-09T10:42:10.548Z,97141.00
2018-12-09T10:45:13.772Z,97144.77
2018-12-09T10:48:17.012Z,97148.48
2018-12-09T10:51:20.312Z,97147.11
2018-12-09T10:54:23.542Z,97149.47
2018-12-09T10:57:26.796Z,97150.22
2018-12-09T11:00:35.474Z,97148.39
2018-12-09T11:03:38.703Z,97155.86
2018-12-09T11:06:42.004Z,97151.26
2018-12-09T11:09:45.286Z,97149.17
2018-12-09T11:12:48.542Z,97136.61
2018-12-09T11:15:51.764Z,97146.02
2018-12-09T11:18:54.999Z,97136.15
2018-12-09T11:21:58.223Z,97134.33
2018-12-09T11:25:01.459Z,97123.88
2018-12-09T11:28:04.802Z,97134.93
2018-12-09T11:31:08.005Z,97118.80
2018-12-09T11:34:11.317Z,97126.19
2018-12-09T11:37:14.540Z,97119.77
2018-12-09T11:40:17.782Z,97120.59
2018-12-09T11:43:20.997Z,97104.78
2018-12-09T11:46:24.254Z,97120.09
2018-12-09T11:49:27.504Z,97107.21
2018-12-09T11:52:30.722Z,97106.73
2018-12-09T11:55:33.979Z,97099.75
2018-12-09T11:58:37.267Z,97100.53
2018-12-09T12:01:40.571Z,97107.94
2018-12-09T12:04:43.784Z,97095.53
2018-12-09T12:07:47.107Z,97103.84
2018-12-09T12:10:50.367Z,97085.72
2018-12-09T12:13:53.663Z,97089.24
2018-12-09T12:16:56.860Z,97094.45
2018-12-09T12:20:00.158Z,97083.39
2018-12-09T12:23:03.431Z,97093.50
2018-12-09T12:26:06.671Z,97088.80
2018-12-09T12:29:09.989Z,97085.73
2018-12-09T12:32:13.208Z,97083.80
2018-12-09T12:35:16.500Z,97074.00
2018-12-09T12:38:19.744Z,97084.13
2018-12-09T12:41:22.988Z,97079.98
2018-12-09T12:44:26.313Z,97063.56
2018-12-09T12:47:29.556Z,97062.83
2018-12-09T12:50:32.813Z,97065.47
2018-12-09T12:53:36.105Z,97074.66
2018-12-09T12:56:39.327Z,97077.66
2018-12-09T12:59:42.592Z,97086.39
2018-12-09T13:02:45.868Z,97094.89
2018-12-09T13:05:49.145Z,97088.91
2018-12-09T13:08:52.381Z,97095.13
2018-12-09T13:11:55.601Z,97101.38
2018-12-09T13:14:58.988Z,97104.16
2018-12-09T13:18:02.260Z,97121.72
2018-12-09T13:21:05.556Z,97103.52
2018-12-09T13:24:08.872Z,97112.37
2018-12-09T13:27:12.270Z,97101.29
2018-12-09T13:30:15.505Z,97106.14
2018-12-09T13:33:18.771Z,97093.25
2018-12-09T13:36:22.000Z,97099.83
2018-12-09T13:39:25.226Z,97087.85
2018-12-09T13:42:28.469Z,97086.08
2018-12-09T13:45:31.723Z,97088.34
2018-12-09T13:48:34.986Z,97095.23
2018-12-09T13:51:38.200Z,97090.60
2018-12-09T13:54:41.444Z,97096.34
2018-12-09T13:57:44.673Z,97108.89
2018-12-09T14:00:47.933Z,97108.02
2018-12-09T14:03:51.207Z,97112.08
2018-12-09T14:06:54.452Z,97109.73
2018-12-09T14:09:57.707Z,97112.06
2018-12-09T14:13:01.036Z,97118.47
2018-12-09T14:16:04.418Z,97126.13
2018-12-09T14:19:07.789Z,97133.80
2018-12-09T14:22:11.096Z,97135.20
2018-12-09T14:25:14.414Z,97141.87
2018-12-09T14:28:17.613Z,97138.10
2018-12-09T14:31:20.906Z,97145.91
2018-12-09T14:34:24.112Z,97146.80
2018-12-09T14:37:27.392Z,97140.86
2018-12-09T14:40:30.600Z,97137.89
2018-12-09T14:43:33.889Z,97150.80
2018-12-09T14:46:37.092Z,97133.89
2018-12-09T14:49:40.382Z,97134.89
2018-12-09T14:52:43.581Z,97131.42
2018-12-09T14:55:46.931Z,97135.34
2018-12-09T14:58:50.200Z,97130.81
2018-12-09T15:01:53.437Z,97136.52
2018-12-09T15:04:56.665Z,97136.05
2018-12-09T15:07:59.947Z,97149.09
2018-12-09T15:11:03.177Z,97168.02
2018-12-09T15:14:06.464Z,97173.11
2018-12-09T15:17:09.713Z,97167.17
2018-12-09T15:20:13.064Z,97165.77
2018-12-09T15:23:16.367Z,97171.91
2018-12-09T15:26:19.617Z,97186.39
2018-12-09T15:29:22.848Z,97190.09
2018-12-09T15:32:26.069Z,97184.54
2018-12-09T15:35:29.336Z,97187.94
2018-12-09T15:38:32.556Z,97196.23
2018-12-09T15:41:35.822Z,97193.30
2018-12-09T15:44:39.162Z,97205.16
2018-12-09T15:47:42.376Z,97215.03
2018-12-09T15:50:45.864Z,97226.98
2018-12-09T15:53:49.079Z,97227.85
2018-12-09T15:56:52.312Z,97234.17
2018-12-09T15:59:55.536Z,97245.73
2018-12-09T16:02:58.753Z,97249.96
2018-12-09T16:06:01.976Z,97250.27
2018-12-09T16:09:07.584Z,97261.30
2018-12-09T16:12:11.154Z,97268.73
2018-12-09T16:15:14.388Z,97270.88
2018-12-09T16:18:17.611Z,97270.57
2018-12-09T16:21:20.872Z,97278.30
2018-12-09T16:24:24.184Z,97289.84
2018-12-09T16:27:27.414Z,97288.16
2018-12-09T16:30:30.660Z,97293.52
2018-12-09T16:33:33.858Z,97309.52
2018-12-09T16:36:37.088Z,97308.36
2018-12-09T16:39:40.329Z,97317.98
2018-12-09T16:42:43.542Z,97329.22
2018-12-09T16:45:46.793Z,97324.86
2018-12-09T16:48:50.019Z,97331.54
2018-12-09T16:51:53.255Z,97342.51
2018-12-09T16:54:56.556Z,97345.41
2018-12-09T16:57:59.804Z,97345.71
2018-12-09T17:01:03.067Z,97354.55
2018-12-09T17:04:06.401Z,97365.74
2018-12-09T17:07:09.629Z,97369.15
2018-12-09T17:10:12.880Z,97369.91
2018-12-09T17:13:16.120Z,97380.66
2018-12-09T17:16:19.381Z,97395.28
2018-12-09T17:19:22.596Z,97413.48
2018-12-09T17:22:25.829Z,97417.25
2018-12-09T17:25:29.149Z,97418.31
2018-12-09T17:28:32.352Z,97435.99
2018-12-09T17:31:35.579Z,97438.17
2018-12-09T17:34:39.337Z,97445.42
2018-12-09T17:37:42.568Z,97449.44
2018-12-09T17:40:45.798Z,97456.34
2018-12-09T17:43:49.036Z,97470.59
2018-12-09T17:46:52.259Z,97472.13
2018-12-09T17:49:55.525Z,97471.27
2018-12-09T17:52:58.750Z,97477.99
2018-12-09T17:56:02.016Z,97478.80
2018-12-09T17:59:05.246Z,97482.80
2018-12-09T18:02:08.613Z,97482.80
2018-12-09T18:05:11.817Z,97498.83
2018-12-09T18:08:15.102Z,97510.32
2018-12-09T18:11:18.332Z,97513.23
2018-12-09T18:14:21.584Z,97518.33
2018-12-09T18:17:24.801Z,97530.87
2018-12-09T18:20:28.088Z,97527.40
2018-12-09T18:23:31.322Z,97538.89
2018-12-09T18:26:34.628Z,97539.17
2018-12-09T18:29:37.903Z,97555.22
2018-12-09T18:32:41.172Z,97553.61
2018-12-09T18:35:44.424Z,97575.49
2018-12-09T18:38:47.724Z,97572.58
2018-12-09T18:41:51.034Z,97576.08
2018-12-09T18:44:54.336Z,97588.36
2018-12-09T18:47:57.618Z,97593.67
2018-12-09T18:51:00.851Z,97598.49
2018-12-09T18:54:04.071Z,97617.72
2018-12-09T18:57:07.300Z,97619.86
2018-12-09T19:00:10.578Z,97633.20
2018-12-09T19:03:13.809Z,97647.33
2018-12-09T19:06:17.099Z,97649.50
2018-12-09T19:09:20.457Z,97658.57
2018-12-09T19:12:23.737Z,97667.38
2018-12-09T19:15:26.956Z,97673.25
2018-12-09T19:18:30.197Z,97681.78
2018-12-09T19:21:33.473Z,97683.94
2018-12-09T19:24:36.692Z,97693.54
2018-12-09T19:27:39.949Z,97698.34
2018-12-09T19:30:48.207Z,97697.81
2018-12-09T19:33:48.628Z,97707.94
2018-12-09T19:36:54.520Z,97723.95
2018-12-09T19:40:16.675Z,97719.16
2018-12-09T19:43:34.369Z,97741.83
2018-12-09T19:46:37.769Z,97733.30
2018-12-09T19:49:42.627Z,97738.91
2018-12-09T19:52:46.187Z,97748.53
2018-12-09T19:55:51.974Z,97755.18
2018-12-09T19:58:55.952Z,97769.88
2018-12-09T20:01:59.686Z,97764.81
2018-12-09T20:05:05.116Z,97776.30
2018-12-09T20:08:13.567Z,97781.89
2018-12-09T20:11:17.481Z,97784.56
2018-12-09T20:14:28.346Z,97798.19
2018-12-09T20:17:32.072Z,97795.23
2018-12-09T20:20:35.284Z,97809.89
2018-12-09T20:23:38.550Z,97814.95
2018-12-09T20:26:41.824Z,97821.61
2018-12-09T20:29:45.534Z,97816.81
2018-12-09T20:32:48.783Z,97823.20
2018-12-09T20:35:52.011Z,97832.25
2018-12-09T20:38:55.260Z,97838.91
2018-12-09T20:41:58.508Z,97848.54
2018-12-09T20:45:01.736Z,97852.05
2018-12-09T20:48:13.173Z,97857.09
2018-12-09T20:51:10.682Z,97875.77
2018-12-09T20:54:24.176Z,97879.56
2018-12-09T20:57:27.412Z,97900.06
2018-12-09T21:00:30.811Z,97896.86
2018-12-09T21:03:34.067Z,97898.20
2018-12-09T21:06:37.286Z,97903.23
2018-12-09T21:09:40.500Z,97907.24
2018-12-09T21:12:43.760Z,97906.11
2018-12-09T21:15:47.024Z,97914.66
2018-12-09T21:18:50.501Z,97917.83
2018-12-09T21:21:53.886Z,97922.38
2018-12-09T21:24:57.110Z,97919.98
2018-12-09T21:28:00.341Z,97918.67
2018-12-09T21:31:03.680Z,97923.16
2018-12-09T21:34:06.882Z,97936.50
2018-12-09T21:37:10.161Z,97938.64
2018-12-09T21:40:13.385Z,97945.38
2018-12-09T21:43:16.651Z,97952.28
2018-12-09T21:46:19.892Z,97951.23
2018-12-09T21:49:23.171Z,97973.13
2018-12-09T21:52:27.344Z,97968.63
2018-12-09T21:55:30.707Z,97974.72
2018-12-09T21:58:33.930Z,97987.27
2018-12-09T22:01:37.153Z,97991.51
2018-12-09T22:04:40.403Z,97994.98
2018-12-09T22:07:43.631Z,97997.42
2018-12-09T22:10:46.866Z,98000.92
2018-12-09T22:13:50.206Z,97996.61
2018-12-09T22:16:53.436Z,98014.00
2018-12-09T22:19:56.718Z,98016.33
2018-12-09T22:22:59.945Z,98019.55
2018-12-09T22:26:03.210Z,98025.95
2018-12-09T22:29:06.442Z,98032.05
2018-12-09T22:32:09.665Z,98046.16
2018-12-09T22:35:13.022Z,98052.02
2018-12-09T22:38:16.225Z,98063.18
2018-12-09T22:41:19.445Z,98076.83
2018-12-09T22:44:22.678Z,98082.77
2018-12-09T22:47:25.985Z,98077.17
2018-12-09T22:50:29.210Z,98086.98
2018-12-09T22:53:32.431Z,98089.13
2018-12-09T22:56:35.668Z,98091.56
2018-12-09T22:59:38.894Z,98100.03
2018-12-09T23:02:47.774Z,98107.51
2018-12-09T23:05:50.989Z,98108.88
2018-12-09T23:08:54.209Z,98106.98
2018-12-09T23:11:57.452Z,98118.79
2018-12-09T23:15:00.701Z,98119.28
2018-12-09T23:18:03.969Z,98120.84
2018-12-09T23:21:07.185Z,98127.29
2018-12-09T23:24:10.819Z,98128.04
2018-12-09T23:27:14.194Z,98127.78
2018-12-09T23:30:17.459Z,98133.70
2018-12-09T23:33:20.818Z,98144.02
2018-12-09T23:36:24.171Z,98154.16
2018-12-09T23:39:27.373Z,98157.41
2018-12-09T23:42:32.908Z,98154.97
2018-12-09T23:45:36.236Z,98158.91
2018-12-09T23:48:39.475Z,98162.62
2018-12-09T23:51:42.748Z,98162.13
2018-12-09T23:54:45.981Z,98156.83
2018-12-09T23:57:49.264Z,98165.35
